createdAt,value
2017-09-19T00:00:05.384Z,53.67
2017-09-19T00:01:15.462Z,53.09
2017-09-19T00:02:25.310Z,53.09
2017-09-19T00:03:34.515Z,53.58
2017-09-19T00:04:43.715Z,53.48
2017-09-19T00:05:53.528Z,53.09
2017-09-19T00:07:03.141Z,53.09
2017-09-19T00:08:12.537Z,53.39
2017-09-19T00:09:22.652Z,53.39
2017-09-19T00:10:33.506Z,53.09
2017-09-19T00:11:42.874Z,52.91
2017-09-19T00:12:52.267Z,52.91
2017-09-19T00:14:01.520Z,53.48
2017-09-19T00:15:10.688Z,53.39
2017-09-19T00:16:20.670Z,53.39
2017-09-19T00:17:29.807Z,53.29
2017-09-19T00:18:39.835Z,53.09
2017-09-19T00:19:49.170Z,53.48
2017-09-19T00:20:58.436Z,53.29
2017-09-19T00:22:07.597Z,52.81
2017-09-19T00:23:17.286Z,53.39
2017-09-19T00:24:26.647Z,53.58
2017-09-19T00:25:36.105Z,53.58
2017-09-19T00:26:45.480Z,53.58
2017-09-19T00:27:55.612Z,53.58
2017-09-19T00:29:05.186Z,53.58
2017-09-19T00:30:14.636Z,53.58
2017-09-19T00:31:23.853Z,53.19
2017-09-19T00:32:33.019Z,53.58
2017-09-19T00:33:42.352Z,53.58
2017-09-19T00:34:51.453Z,53.39
2017-09-19T00:36:01.151Z,53.48
2017-09-19T00:37:10.923Z,53.48
2017-09-19T00:38:21.176Z,53.19
2017-09-19T00:39:30.233Z,53.09
2017-09-19T00:40:39.713Z,53.48
2017-09-19T00:41:49.801Z,53.39
2017-09-19T00:42:59.628Z,53.58
2017-09-19T00:44:08.709Z,53.19
2017-09-19T00:45:18.151Z,53.67
2017-09-19T00:46:27.158Z,53.39
2017-09-19T00:47:36.602Z,53.19
2017-09-19T00:48:46.054Z,53.67
2017-09-19T00:49:55.416Z,53.19
2017-09-19T00:51:04.904Z,53.58
2017-09-19T00:52:13.860Z,53.58
2017-09-19T00:53:22.510Z,53.58
2017-09-19T00:54:31.788Z,53.58
2017-09-19T00:55:40.749Z,53.19
2017-09-19T00:56:49.711Z,53.39
2017-09-19T00:57:59.622Z,53.09
2017-09-19T00:59:08.268Z,53.58
2017-09-19T01:00:17.868Z,53.19
2017-09-19T01:01:27.786Z,53.58
2017-09-19T01:02:36.809Z,53.39
2017-09-19T01:03:45.774Z,53.67
2017-09-19T01:04:54.773Z,53.39
2017-09-19T01:06:03.386Z,53.29
2017-09-19T01:07:12.735Z,53.39
2017-09-19T01:08:22.072Z,53.48
2017-09-19T01:09:31.345Z,53.58
2017-09-19T01:10:40.318Z,53.39
2017-09-19T01:11:49.268Z,53.19
2017-09-19T01:12:58.278Z,53.39
2017-09-19T01:14:07.233Z,53.39
2017-09-19T01:15:16.208Z,53.39
2017-09-19T01:16:25.803Z,53.48
2017-09-19T01:17:35.088Z,53.39
2017-09-19T01:18:44.044Z,53.39
2017-09-19T01:19:52.688Z,53.58
2017-09-19T01:21:02.268Z,53.58
2017-09-19T01:22:11.233Z,53.39
2017-09-19T01:23:19.878Z,53.29
2017-09-19T01:24:28.529Z,52.91
2017-09-19T01:25:37.501Z,53.48
2017-09-19T01:26:46.488Z,53.48
2017-09-19T01:27:55.444Z,52.91
2017-09-19T01:29:05.035Z,53.39
2017-09-19T01:30:13.705Z,53.39
2017-09-19T01:31:22.991Z,53.19
2017-09-19T01:32:32.267Z,53.39
2017-09-19T01:33:41.211Z,53.67
2017-09-19T01:34:50.186Z,53.39
2017-09-19T01:36:00.085Z,53.58
2017-09-19T01:37:08.753Z,53.19
2017-09-19T01:38:18.195Z,53.19
2017-09-19T01:39:27.473Z,53.39
2017-09-19T01:40:36.450Z,53.29
2017-09-19T01:41:45.443Z,53.48
2017-09-19T01:42:54.407Z,52.91
2017-09-19T01:44:03.674Z,53.29
2017-09-19T01:45:12.956Z,53.29
2017-09-19T01:46:21.926Z,53.19
2017-09-19T01:47:30.896Z,53.19
2017-09-19T01:48:39.864Z,53.48
2017-09-19T01:49:49.167Z,53.29
2017-09-19T01:50:58.448Z,53.39
2017-09-19T01:52:07.732Z,53.58
2017-09-19T01:53:16.373Z,53.29
2017-09-19T01:54:25.654Z,53.19
2017-09-19T01:55:34.613Z,53.58
2017-09-19T01:56:43.570Z,53.58
2017-09-19T01:57:53.179Z,53.19
2017-09-19T01:59:01.817Z,53.09
2017-09-19T02:00:10.816Z,53.39
2017-09-19T02:01:20.090Z,53.19
2017-09-19T02:02:28.728Z,53.09
2017-09-19T02:03:37.687Z,53.29
2017-09-19T02:04:47.599Z,53.48
2017-09-19T02:05:56.553Z,53.39
2017-09-19T02:07:05.205Z,53.58
2017-09-19T02:08:14.513Z,52.81
2017-09-19T02:09:23.170Z,53.09
2017-09-19T02:10:31.830Z,53.39
2017-09-19T02:11:41.735Z,53.58
2017-09-19T02:12:50.382Z,53.39
2017-09-19T02:13:59.037Z,52.91
2017-09-19T02:15:08.009Z,52.91
2017-09-19T02:16:17.270Z,53.48
2017-09-19T02:17:26.235Z,53.09
2017-09-19T02:18:35.819Z,53.39
2017-09-19T02:19:45.102Z,53.58
2017-09-19T02:20:54.060Z,52.81
2017-09-19T02:22:02.806Z,53.58
2017-09-19T02:23:12.083Z,53.09
2017-09-19T02:24:20.748Z,52.81
2017-09-19T02:25:29.730Z,53.77
2017-09-19T02:26:39.322Z,53.09
2017-09-19T02:27:48.279Z,53.09
2017-09-19T02:28:56.959Z,53.39
2017-09-19T02:30:05.627Z,52.81
2017-09-19T02:31:14.591Z,53
2017-09-19T02:32:23.611Z,53
2017-09-19T02:33:32.890Z,53.48
2017-09-19T02:34:42.156Z,53.48
2017-09-19T02:35:51.099Z,53.67
2017-09-19T02:37:00.070Z,53.67
2017-09-19T02:38:09.031Z,53
2017-09-19T02:39:18.314Z,53.09
2017-09-19T02:40:27.583Z,53.77
2017-09-19T02:41:36.238Z,53
2017-09-19T02:42:45.512Z,53.09
2017-09-19T02:43:54.480Z,53.58
2017-09-19T02:45:03.440Z,53.48
2017-09-19T02:46:12.732Z,52.91
2017-09-19T02:47:22.021Z,53
2017-09-19T02:48:31.303Z,53
2017-09-19T02:49:40.585Z,53
2017-09-19T02:50:49.233Z,53.77
2017-09-19T02:51:58.823Z,53
2017-09-19T02:53:08.109Z,53.77
2017-09-19T02:54:18.082Z,53.58
2017-09-19T02:55:26.737Z,53.58
2017-09-19T02:56:35.382Z,53
2017-09-19T02:57:44.670Z,53.58
2017-09-19T02:58:53.689Z,53.67
2017-09-19T03:00:02.654Z,53
2017-09-19T03:01:11.317Z,53.19
2017-09-19T03:02:20.307Z,53
2017-09-19T03:03:29.303Z,53.58
2017-09-19T03:04:38.266Z,53
2017-09-19T03:05:47.538Z,53
2017-09-19T03:06:56.836Z,53
2017-09-19T03:08:06.119Z,53.29
2017-09-19T03:09:15.412Z,53.19
2017-09-19T03:10:24.693Z,53.19
2017-09-19T03:11:33.345Z,52.91
2017-09-19T03:12:42.956Z,52.91
2017-09-19T03:13:51.922Z,53
2017-09-19T03:15:00.879Z,53.19
2017-09-19T03:16:10.492Z,53.09
2017-09-19T03:17:19.490Z,53.09
2017-09-19T03:18:28.452Z,53.19
2017-09-19T03:19:37.417Z,53.19
2017-09-19T03:20:46.704Z,53.19
2017-09-19T03:21:55.684Z,53.39
2017-09-19T03:23:04.968Z,53.29
2017-09-19T03:24:14.237Z,53.39
2017-09-19T03:25:22.963Z,53.29
2017-09-19T03:26:32.246Z,53.39
2017-09-19T03:27:41.215Z,53.39
2017-09-19T03:28:50.210Z,53.19
2017-09-19T03:29:58.857Z,53.39
2017-09-19T03:31:07.814Z,53.29
2017-09-19T03:32:17.419Z,53.48
2017-09-19T03:33:26.693Z,53.19
2017-09-19T03:34:35.351Z,53.39
2017-09-19T03:35:44.963Z,53.39
2017-09-19T03:36:53.932Z,53.29
2017-09-19T03:38:03.213Z,53.29
2017-09-19T03:39:12.194Z,53.29
2017-09-19T03:40:21.153Z,53.29
2017-09-19T03:41:30.424Z,53.19
2017-09-19T03:42:39.375Z,53.19
2017-09-19T03:43:49.283Z,53.29
2017-09-19T03:44:58.311Z,53.29
2017-09-19T03:46:07.578Z,53.29
2017-09-19T03:47:16.545Z,53.29
2017-09-19T03:48:25.200Z,53.29
2017-09-19T03:49:34.513Z,53.19
2017-09-19T03:50:44.100Z,53.19
2017-09-19T03:51:53.066Z,53.19
2017-09-19T03:53:01.718Z,53.19
2017-09-19T03:54:10.709Z,53.09
2017-09-19T03:55:20.005Z,53.39
2017-09-19T03:56:28.654Z,53.29
2017-09-19T03:57:38.258Z,53.39
2017-09-19T03:58:46.924Z,53.09
2017-09-19T03:59:55.885Z,53.09
2017-09-19T04:01:05.885Z,53.48
2017-09-19T04:02:14.849Z,53.29
2017-09-19T04:03:23.815Z,53.48
2017-09-19T04:04:32.804Z,53.19
2017-09-19T04:05:41.789Z,53.39
2017-09-19T04:06:51.381Z,53.39
2017-09-19T04:08:00.026Z,53.39
2017-09-19T04:09:08.977Z,53.48
2017-09-19T04:10:17.948Z,53.58
2017-09-19T04:11:27.544Z,53.09
2017-09-19T04:12:37.449Z,53.19
2017-09-19T04:13:46.406Z,53
2017-09-19T04:14:55.686Z,53.09
2017-09-19T04:16:04.648Z,53.19
2017-09-19T04:17:13.619Z,53.29
2017-09-19T04:18:22.605Z,53
2017-09-19T04:19:31.255Z,53.09
2017-09-19T04:20:40.531Z,53
2017-09-19T04:21:49.486Z,53.29
2017-09-19T04:22:58.785Z,53.29
2017-09-19T04:24:07.444Z,53
2017-09-19T04:25:16.423Z,53.29
2017-09-19T04:26:25.400Z,53
2017-09-19T04:27:34.368Z,53.29
2017-09-19T04:28:43.648Z,52.81
2017-09-19T04:29:52.942Z,53
2017-09-19T04:31:01.992Z,53
2017-09-19T04:32:10.978Z,53
2017-09-19T04:33:19.969Z,53
2017-09-19T04:34:28.945Z,53
2017-09-19T04:35:37.905Z,53.09
2017-09-19T04:36:47.049Z,53.09
2017-09-19T04:37:55.712Z,52.81
2017-09-19T04:39:04.705Z,53.09
2017-09-19T04:40:13.691Z,53
2017-09-19T04:41:22.371Z,53
2017-09-19T04:42:31.799Z,53
2017-09-19T04:43:40.800Z,53
2017-09-19T04:44:50.720Z,52.81
2017-09-19T04:45:59.717Z,52.81
2017-09-19T04:47:08.678Z,53
2017-09-19T04:48:18.336Z,52.91
2017-09-19T04:49:27.013Z,52.91
2017-09-19T04:50:35.680Z,52.91
2017-09-19T04:51:44.650Z,52.91
2017-09-19T04:52:53.307Z,52.91
2017-09-19T04:54:02.601Z,52.91
2017-09-19T04:55:11.573Z,52.91
2017-09-19T04:56:20.902Z,53
2017-09-19T04:57:29.974Z,53
2017-09-19T04:58:38.950Z,53
2017-09-19T04:59:47.661Z,52.81
2017-09-19T05:00:57.007Z,52.91
2017-09-19T05:02:05.984Z,53
2017-09-19T05:03:14.997Z,53
2017-09-19T05:04:23.699Z,52.81
2017-09-19T05:05:32.382Z,53
2017-09-19T05:06:41.441Z,52.81
2017-09-19T05:07:50.718Z,53
2017-09-19T05:08:59.382Z,52.91
2017-09-19T05:10:08.699Z,53
2017-09-19T05:11:17.342Z,52.91
2017-09-19T05:12:26.347Z,53
2017-09-19T05:13:35.680Z,53
2017-09-19T05:14:44.764Z,53
2017-09-19T05:15:54.074Z,52.81
2017-09-19T05:17:03.065Z,53
2017-09-19T05:18:12.028Z,53
2017-09-19T05:19:20.733Z,53
2017-09-19T05:20:30.014Z,52.81
2017-09-19T05:21:38.980Z,52.91
2017-09-19T05:22:47.964Z,53
2017-09-19T05:23:57.252Z,52.81
2017-09-19T05:25:06.227Z,52.91
2017-09-19T05:26:15.496Z,53
2017-09-19T05:27:24.461Z,52.91
2017-09-19T05:28:33.418Z,53
2017-09-19T05:29:42.057Z,52.91
2017-09-19T05:30:50.733Z,52.91
2017-09-19T05:32:00.116Z,52.91
2017-09-19T05:33:09.140Z,52.91
2017-09-19T05:34:18.102Z,53.09
2017-09-19T05:35:27.691Z,52.91
2017-09-19T05:36:36.338Z,53
2017-09-19T05:37:45.323Z,52.91
2017-09-19T05:38:54.614Z,53
2017-09-19T05:40:03.905Z,53
2017-09-19T05:41:13.206Z,53.09
2017-09-19T05:42:21.861Z,53.29
2017-09-19T05:43:30.898Z,53.09
2017-09-19T05:44:39.858Z,53.09
2017-09-19T05:45:48.502Z,52.91
2017-09-19T05:46:57.149Z,53.19
2017-09-19T05:48:06.130Z,52.91
2017-09-19T05:49:15.103Z,52.91
2017-09-19T05:50:24.067Z,53.09
2017-09-19T05:51:32.725Z,53
2017-09-19T05:52:41.699Z,53.09
2017-09-19T05:53:51.279Z,53.19
2017-09-19T05:55:00.875Z,53.19
2017-09-19T05:56:09.874Z,53
2017-09-19T05:57:19.151Z,53.09
2017-09-19T05:58:27.790Z,53.19
2017-09-19T05:59:37.062Z,53
2017-09-19T06:00:46.025Z,53.09
2017-09-19T06:01:54.975Z,53.09
2017-09-19T06:03:04.040Z,53.39
2017-09-19T06:04:13.015Z,53.29
2017-09-19T06:05:22.286Z,53.09
2017-09-19T06:06:31.577Z,52.91
2017-09-19T06:07:40.576Z,53.29
2017-09-19T06:08:49.870Z,52.81
2017-09-19T06:09:59.531Z,53.29
2017-09-19T06:11:08.520Z,52.91
2017-09-19T06:12:18.190Z,52.81
2017-09-19T06:13:27.149Z,52.81
2017-09-19T06:14:36.125Z,52.81
2017-09-19T06:15:44.768Z,52.81
2017-09-19T06:16:53.734Z,52.81
2017-09-19T06:18:03.019Z,52.61
2017-09-19T06:19:12.308Z,52.91
2017-09-19T06:20:21.560Z,52.42
2017-09-19T06:21:30.523Z,52.61
2017-09-19T06:22:39.645Z,52.52
2017-09-19T06:23:48.593Z,52.52
2017-09-19T06:24:57.553Z,52.52
2017-09-19T06:26:06.208Z,52.42
2017-09-19T06:27:14.898Z,52.42
2017-09-19T06:28:24.527Z,52.42
2017-09-19T06:29:33.242Z,52.81
2017-09-19T06:30:42.526Z,52.71
2017-09-19T06:31:51.501Z,52.61
2017-09-19T06:33:00.452Z,52.91
2017-09-19T06:34:10.066Z,52.91
2017-09-19T06:35:19.666Z,52.33
2017-09-19T06:36:28.936Z,52.42
2017-09-19T06:37:37.929Z,52.42
2017-09-19T06:38:47.231Z,52.33
2017-09-19T06:39:56.225Z,52.23
2017-09-19T06:41:05.490Z,52.55
2017-09-19T06:42:14.460Z,52.55
2017-09-19T06:43:23.740Z,52.55
2017-09-19T06:44:33.095Z,52.71
2017-09-19T06:45:42.080Z,52.61
2017-09-19T06:46:51.356Z,52.06
2017-09-19T06:48:00.402Z,52.45
2017-09-19T06:49:09.088Z,52.16
2017-09-19T06:50:17.726Z,51.87
2017-09-19T06:51:27.017Z,52.16
2017-09-19T06:52:35.738Z,51.97
2017-09-19T06:53:44.823Z,52.06
2017-09-19T06:54:53.844Z,52.06
2017-09-19T06:56:03.515Z,51.97
2017-09-19T06:57:12.861Z,51.97
2017-09-19T06:58:21.864Z,51.87
2017-09-19T06:59:31.128Z,51.97
2017-09-19T07:00:40.777Z,52.06
2017-09-19T07:01:49.749Z,51.97
2017-09-19T07:02:59.688Z,52.16
2017-09-19T07:04:08.341Z,51.97
2017-09-19T07:05:17.663Z,52.16
2017-09-19T07:06:26.938Z,52.25
2017-09-19T07:07:35.596Z,52.64
2017-09-19T07:08:45.210Z,52.55
2017-09-19T07:09:54.484Z,52.64
2017-09-19T07:11:03.805Z,52.45
2017-09-19T07:12:12.454Z,52.25
2017-09-19T07:13:21.108Z,52.25
2017-09-19T07:14:30.115Z,52.35
2017-09-19T07:15:39.776Z,52.45
2017-09-19T07:16:48.417Z,52.45
2017-09-19T07:17:57.697Z,52.35
2017-09-19T07:19:06.965Z,52.45
2017-09-19T07:20:15.622Z,52.45
2017-09-19T07:21:24.575Z,52.55
2017-09-19T07:22:33.948Z,52.45
2017-09-19T07:23:43.194Z,52.45
2017-09-19T07:24:52.193Z,52.35
2017-09-19T07:26:01.467Z,52.45
2017-09-19T07:27:10.766Z,52.45
2017-09-19T07:28:20.046Z,52.81
2017-09-19T07:29:28.707Z,52.45
2017-09-19T07:30:38.295Z,52.35
2017-09-19T07:31:47.599Z,53.03
2017-09-19T07:32:56.249Z,52.83
2017-09-19T07:34:04.926Z,52.81
2017-09-19T07:35:14.310Z,52.91
2017-09-19T07:36:23.589Z,52.93
2017-09-19T07:37:32.318Z,52.64
2017-09-19T07:38:40.976Z,52.93
2017-09-19T07:39:50.627Z,52.83
2017-09-19T07:40:59.552Z,52.42
2017-09-19T07:42:08.513Z,52.64
2017-09-19T07:43:17.170Z,52.64
2017-09-19T07:44:26.511Z,52.55
2017-09-19T07:45:35.795Z,52.64
2017-09-19T07:46:45.244Z,52.73
2017-09-19T07:47:54.529Z,52.64
2017-09-19T07:49:03.850Z,52.93
2017-09-19T07:50:13.179Z,52.73
2017-09-19T07:51:22.466Z,53.03
2017-09-19T07:52:31.469Z,52.83
2017-09-19T07:53:40.827Z,52.45
2017-09-19T07:54:49.796Z,52.64
2017-09-19T07:55:58.763Z,52.64
2017-09-19T07:57:08.108Z,52.06
2017-09-19T07:58:17.382Z,52.25
2017-09-19T07:59:26.665Z,51.97
2017-09-19T08:00:35.647Z,51.97
2017-09-19T08:01:45.236Z,51.77
2017-09-19T08:02:53.887Z,51.68
2017-09-19T08:04:03.187Z,51.68
2017-09-19T08:05:12.181Z,51.68
2017-09-19T08:06:22.304Z,51.7
2017-09-19T08:07:31.597Z,51.58
2017-09-19T08:08:40.569Z,51.68
2017-09-19T08:09:50.156Z,51.68
2017-09-19T08:10:58.804Z,51.58
2017-09-19T08:12:08.102Z,51.87
2017-09-19T08:13:16.780Z,51.97
2017-09-19T08:14:25.455Z,51.68
2017-09-19T08:15:34.131Z,51.77
2017-09-19T08:16:42.799Z,51.87
2017-09-19T08:17:51.470Z,52.06
2017-09-19T08:19:00.446Z,51.87
2017-09-19T08:20:09.747Z,52.06
2017-09-19T08:21:18.714Z,51.97
2017-09-19T08:22:28.329Z,52.16
2017-09-19T08:23:37.615Z,52.16
2017-09-19T08:24:46.280Z,51.87
2017-09-19T08:25:55.249Z,51.97
2017-09-19T08:27:05.163Z,51.87
2017-09-19T08:28:14.490Z,51.87
2017-09-19T08:29:23.468Z,51.97
2017-09-19T08:30:32.753Z,52.16
2017-09-19T08:31:42.029Z,52.06
2017-09-19T08:32:51.304Z,52.06
2017-09-19T08:34:00.275Z,52.06
2017-09-19T08:35:09.261Z,51.97
2017-09-19T08:36:17.902Z,52.06
2017-09-19T08:37:26.559Z,52.06
2017-09-19T08:38:35.540Z,51.97
2017-09-19T08:39:45.142Z,52.16
2017-09-19T08:40:54.428Z,52.25
2017-09-19T08:42:04.046Z,52.06
2017-09-19T08:43:13.333Z,51.97
2017-09-19T08:44:22.295Z,52.45
2017-09-19T08:45:31.581Z,52.06
2017-09-19T08:46:40.549Z,51.87
2017-09-19T08:47:49.822Z,51.87
2017-09-19T08:48:58.477Z,52.35
2017-09-19T08:50:07.464Z,52.06
2017-09-19T08:51:16.434Z,51.87
2017-09-19T08:52:25.426Z,52.25
2017-09-19T08:53:34.704Z,51.97
2017-09-19T08:54:43.984Z,52.06
2017-09-19T08:55:53.582Z,51.97
2017-09-19T08:57:02.565Z,51.77
2017-09-19T08:58:11.884Z,51.58
2017-09-19T08:59:20.844Z,51.68
2017-09-19T09:00:29.852Z,51.68
2017-09-19T09:01:39.128Z,51.7
2017-09-19T09:02:47.789Z,51.97
2017-09-19T09:03:56.451Z,51.97
2017-09-19T09:05:05.123Z,52.06
2017-09-19T09:06:14.081Z,51.97
2017-09-19T09:07:23.058Z,51.97
2017-09-19T09:08:32.018Z,51.97
2017-09-19T09:09:41.010Z,52.06
2017-09-19T09:10:50.304Z,51.97
2017-09-19T09:11:59.915Z,52.25
2017-09-19T09:13:09.197Z,52.06
2017-09-19T09:14:17.871Z,51.97
2017-09-19T09:15:26.832Z,52.06
2017-09-19T09:16:36.134Z,51.87
2017-09-19T09:17:45.418Z,52.06
2017-09-19T09:18:54.062Z,52.06
2017-09-19T09:20:03.418Z,51.97
2017-09-19T09:21:12.433Z,52.06
2017-09-19T09:22:21.405Z,51.97
2017-09-19T09:23:30.390Z,51.97
2017-09-19T09:24:39.673Z,51.87
2017-09-19T09:25:48.952Z,52.06
2017-09-19T09:26:57.943Z,51.97
2017-09-19T09:28:07.231Z,52.73
2017-09-19T09:29:16.825Z,52.55
2017-09-19T09:30:26.103Z,52.64
2017-09-19T09:31:35.699Z,52.45
2017-09-19T09:32:45.313Z,52.55
2017-09-19T09:33:53.967Z,52.55
2017-09-19T09:35:03.266Z,52.55
2017-09-19T09:36:12.556Z,52.06
2017-09-19T09:37:21.849Z,52.16
2017-09-19T09:38:31.144Z,52.06
2017-09-19T09:39:40.769Z,52.06
2017-09-19T09:40:49.745Z,52.06
2017-09-19T09:41:58.398Z,52.16
2017-09-19T09:43:07.369Z,51.97
2017-09-19T09:44:16.366Z,52.06
2017-09-19T09:45:25.365Z,52.16
2017-09-19T09:46:34.027Z,52.16
2017-09-19T09:47:43.317Z,52.06
2017-09-19T09:48:52.606Z,52.06
2017-09-19T09:50:02.196Z,51.97
2017-09-19T09:51:10.914Z,52.25
2017-09-19T09:52:19.898Z,52.06
2017-09-19T09:53:29.028Z,51.97
2017-09-19T09:54:38.235Z,52.06
2017-09-19T09:55:47.697Z,52.06
2017-09-19T09:56:57.129Z,51.87
2017-09-19T09:58:06.281Z,52.06
2017-09-19T09:59:15.841Z,51.97
2017-09-19T10:00:24.936Z,52.06
2017-09-19T10:01:34.795Z,52.06
2017-09-19T10:02:44.343Z,52.06
2017-09-19T10:03:54.705Z,51.87
2017-09-19T10:05:03.535Z,52.06
2017-09-19T10:06:13.459Z,52.64
2017-09-19T10:07:23.297Z,52.64
2017-09-19T10:08:32.825Z,52.64
2017-09-19T10:09:42.281Z,52.64
2017-09-19T10:10:51.788Z,52.55
2017-09-19T10:12:00.945Z,52.35
2017-09-19T10:13:10.806Z,52.35
2017-09-19T10:14:20.552Z,52.35
2017-09-19T10:15:29.781Z,52.25
2017-09-19T10:16:40.470Z,52.25
2017-09-19T10:17:49.585Z,52.25
2017-09-19T10:18:58.552Z,52.25
2017-09-19T10:20:08.491Z,52.45
2017-09-19T10:21:17.450Z,52.55
2017-09-19T10:22:26.487Z,52.55
2017-09-19T10:23:35.483Z,52.55
2017-09-19T10:24:44.145Z,52.45
2017-09-19T10:25:53.439Z,52.64
2017-09-19T10:27:02.766Z,52.55
2017-09-19T10:28:12.048Z,52.45
2017-09-19T10:29:21.331Z,52.16
2017-09-19T10:30:30.923Z,51.87
2017-09-19T10:31:39.592Z,52.45
2017-09-19T10:32:48.877Z,52.16
2017-09-19T10:33:58.197Z,51.87
2017-09-19T10:35:07.150Z,52.06
2017-09-19T10:36:15.804Z,52.16
2017-09-19T10:37:24.472Z,52.16
2017-09-19T10:38:33.438Z,52.25
2017-09-19T10:39:42.078Z,52.06
2017-09-19T10:40:51.059Z,52.16
2017-09-19T10:42:00.388Z,51.97
2017-09-19T10:43:09.675Z,51.97
2017-09-19T10:44:19.263Z,52.06
2017-09-19T10:45:28.578Z,52.06
2017-09-19T10:46:37.228Z,51.97
2017-09-19T10:47:46.198Z,51.58
2017-09-19T10:48:55.176Z,51.58
2017-09-19T10:50:04.469Z,51.58
2017-09-19T10:51:13.770Z,51.68
2017-09-19T10:52:22.807Z,51.68
2017-09-19T10:53:31.790Z,51.68
2017-09-19T10:54:41.125Z,51.58
2017-09-19T10:55:50.746Z,51.77
2017-09-19T10:56:59.574Z,51.58
2017-09-19T10:58:08.880Z,51.87
2017-09-19T10:59:17.865Z,51.68
2017-09-19T11:00:27.165Z,51.68
2017-09-19T11:01:36.166Z,51.61
2017-09-19T11:02:45.175Z,51.77
2017-09-19T11:03:54.146Z,51.58
2017-09-19T11:05:03.136Z,51.97
2017-09-19T11:06:12.129Z,51.97
2017-09-19T11:07:21.737Z,51.77
2017-09-19T11:08:30.702Z,51.87
2017-09-19T11:09:39.694Z,51.68
2017-09-19T11:10:49.000Z,52.06
2017-09-19T11:11:58.343Z,51.77
2017-09-19T11:13:07.336Z,51.77
2017-09-19T11:14:16.975Z,51.97
2017-09-19T11:15:25.979Z,52.06
2017-09-19T11:16:35.277Z,52.06
2017-09-19T11:17:44.248Z,51.97
2017-09-19T11:18:53.533Z,52.06
2017-09-19T11:20:02.825Z,52.16
2017-09-19T11:21:12.106Z,51.87
2017-09-19T11:22:21.071Z,51.77
2017-09-19T11:23:30.384Z,51.68
2017-09-19T11:24:39.671Z,51.68
2017-09-19T11:25:48.649Z,51.48
2017-09-19T11:26:57.628Z,51.58
2017-09-19T11:28:06.593Z,51.7
2017-09-19T11:29:15.869Z,51.7
2017-09-19T11:30:25.454Z,51.99
2017-09-19T11:31:34.414Z,51.89
2017-09-19T11:32:44.005Z,51.77
2017-09-19T11:33:53.311Z,51.89
2017-09-19T11:35:02.301Z,51.8
2017-09-19T11:36:11.584Z,51.89
2017-09-19T11:37:20.570Z,51.8
2017-09-19T11:38:30.172Z,51.89
2017-09-19T11:39:39.445Z,51.8
2017-09-19T11:40:48.430Z,51.8
2017-09-19T11:41:57.080Z,51.7
2017-09-19T11:43:05.724Z,51.8
2017-09-19T11:44:14.394Z,51.8
2017-09-19T11:45:23.065Z,51.87
2017-09-19T11:46:31.711Z,51.77
2017-09-19T11:47:40.679Z,51.97
2017-09-19T11:48:49.654Z,51.77
2017-09-19T11:49:59.004Z,51.77
2017-09-19T11:51:07.971Z,52.06
2017-09-19T11:52:16.935Z,52.06
2017-09-19T11:53:25.596Z,52.06
2017-09-19T11:54:34.306Z,52.06
2017-09-19T11:55:43.641Z,51.97
2017-09-19T11:56:52.603Z,51.97
2017-09-19T11:58:01.273Z,51.77
2017-09-19T11:59:10.252Z,51.58
2017-09-19T12:00:18.903Z,51.58
2017-09-19T12:01:27.886Z,51.61
2017-09-19T12:02:36.861Z,51.99
2017-09-19T12:03:46.450Z,51.61
2017-09-19T12:04:55.483Z,51.8
2017-09-19T12:06:04.125Z,51.7
2017-09-19T12:07:13.406Z,51.99
2017-09-19T12:08:22.067Z,51.8
2017-09-19T12:09:30.749Z,51.89
2017-09-19T12:10:39.742Z,51.89
2017-09-19T12:11:48.405Z,51.61
2017-09-19T12:12:57.379Z,51.8
2017-09-19T12:14:06.658Z,51.7
2017-09-19T12:15:15.630Z,51.8
2017-09-19T12:16:25.229Z,51.7
2017-09-19T12:17:34.512Z,51.7
2017-09-19T12:18:43.490Z,51.7
2017-09-19T12:19:52.451Z,51.8
2017-09-19T12:21:01.731Z,51.99
2017-09-19T12:22:10.741Z,51.8
2017-09-19T12:23:19.720Z,51.7
2017-09-19T12:24:28.682Z,51.99
2017-09-19T12:25:37.643Z,51.99
2017-09-19T12:26:46.614Z,51.7
2017-09-19T12:27:55.579Z,51.89
2017-09-19T12:29:04.231Z,51.7
2017-09-19T12:30:13.523Z,51.89
2017-09-19T12:31:22.483Z,51.7
2017-09-19T12:32:31.450Z,51.7
2017-09-19T12:33:41.058Z,51.89
2017-09-19T12:34:50.344Z,51.99
2017-09-19T12:35:59.624Z,51.7
2017-09-19T12:37:08.598Z,51.99
2017-09-19T12:38:17.274Z,51.8
2017-09-19T12:39:26.860Z,51.8
2017-09-19T12:40:35.817Z,51.99
2017-09-19T12:41:44.465Z,51.8
2017-09-19T12:42:54.389Z,51.51
2017-09-19T12:44:03.365Z,51.89
2017-09-19T12:45:12.339Z,51.89
2017-09-19T12:46:21.302Z,51.99
2017-09-19T12:47:30.580Z,51.89
2017-09-19T12:48:40.188Z,51.89
2017-09-19T12:49:48.839Z,51.89
2017-09-19T12:50:57.815Z,51.7
2017-09-19T12:52:07.111Z,51.7
2017-09-19T12:53:15.765Z,51.89
2017-09-19T12:54:25.053Z,51.89
2017-09-19T12:55:34.016Z,51.7
2017-09-19T12:56:42.991Z,51.7
2017-09-19T12:57:51.671Z,51.8
2017-09-19T12:59:00.664Z,51.61
2017-09-19T13:00:09.645Z,51.99
2017-09-19T13:01:18.660Z,51.7
2017-09-19T13:02:27.634Z,51.41
2017-09-19T13:03:36.602Z,51.61
2017-09-19T13:04:45.575Z,51.61
2017-09-19T13:05:55.176Z,51.61
2017-09-19T13:07:04.470Z,51.61
2017-09-19T13:08:13.793Z,51.41
2017-09-19T13:09:22.505Z,51.61
2017-09-19T13:10:31.497Z,51.89
2017-09-19T13:11:40.145Z,51.7
2017-09-19T13:12:48.803Z,51.61
2017-09-19T13:13:57.781Z,51.8
2017-09-19T13:15:07.084Z,51.8
2017-09-19T13:16:16.091Z,51.8
2017-09-19T13:17:26.025Z,51.8
2017-09-19T13:18:35.025Z,51.7
2017-09-19T13:19:44.638Z,51.7
2017-09-19T13:20:53.311Z,51.8
2017-09-19T13:22:02.607Z,51.8
2017-09-19T13:23:12.210Z,51.8
2017-09-19T13:24:21.517Z,51.7
2017-09-19T13:25:30.811Z,51.7
2017-09-19T13:26:39.461Z,51.7
2017-09-19T13:27:48.460Z,51.7
2017-09-19T13:28:57.444Z,51.8
2017-09-19T13:30:06.434Z,51.8
2017-09-19T13:31:15.720Z,51.99
2017-09-19T13:32:24.711Z,51.89
2017-09-19T13:33:33.701Z,51.7
2017-09-19T13:34:42.693Z,51.61
2017-09-19T13:35:52.005Z,51.41
2017-09-19T13:37:01.309Z,51.22
2017-09-19T13:38:10.162Z,51.32
2017-09-19T13:39:19.205Z,51.41
2017-09-19T13:40:28.192Z,51.03
2017-09-19T13:41:36.852Z,51.41
2017-09-19T13:42:45.861Z,51.32
2017-09-19T13:43:54.843Z,51.41
2017-09-19T13:45:03.901Z,51.61
2017-09-19T13:46:12.573Z,51.89
2017-09-19T13:47:21.897Z,51.8
2017-09-19T13:48:30.559Z,51.7
2017-09-19T13:49:39.542Z,51.8
2017-09-19T13:50:48.536Z,51.8
2017-09-19T13:51:57.838Z,51.8
2017-09-19T13:53:06.490Z,51.8
2017-09-19T13:54:15.159Z,51.89
2017-09-19T13:55:23.818Z,51.7
2017-09-19T13:56:33.103Z,51.7
2017-09-19T13:57:42.415Z,51.51
2017-09-19T13:58:52.017Z,51.89
2017-09-19T14:00:01.312Z,51.8
2017-09-19T14:01:10.622Z,51.8
2017-09-19T14:02:19.925Z,51.8
2017-09-19T14:03:29.219Z,51.89
2017-09-19T14:04:37.900Z,51.99
2017-09-19T14:05:47.206Z,51.8
2017-09-19T14:06:56.180Z,51.8
2017-09-19T14:08:05.797Z,51.7
2017-09-19T14:09:14.473Z,51.7
2017-09-19T14:10:23.774Z,51.8
2017-09-19T14:11:33.076Z,51.7
2017-09-19T14:12:42.065Z,51.7
2017-09-19T14:13:52.008Z,51.8
2017-09-19T14:15:00.989Z,51.89
2017-09-19T14:16:10.299Z,51.7
2017-09-19T14:17:19.587Z,51.8
2017-09-19T14:18:28.598Z,51.8
2017-09-19T14:19:37.595Z,51.61
2017-09-19T14:20:46.260Z,51.61
2017-09-19T14:21:55.552Z,51.8
2017-09-19T14:23:04.541Z,51.89
2017-09-19T14:24:13.825Z,51.8
2017-09-19T14:25:23.425Z,51.99
2017-09-19T14:26:32.389Z,51.8
2017-09-19T14:27:41.718Z,51.7
2017-09-19T14:28:50.717Z,52.19
2017-09-19T14:30:00.017Z,51.7
2017-09-19T14:31:09.004Z,51.61
2017-09-19T14:32:17.991Z,51.41
2017-09-19T14:33:27.597Z,51.61
2017-09-19T14:34:36.892Z,51.32
2017-09-19T14:35:46.848Z,51.41
2017-09-19T14:36:55.882Z,51.32
2017-09-19T14:38:05.172Z,51.41
2017-09-19T14:39:14.146Z,51.41
2017-09-19T14:40:22.815Z,51.41
2017-09-19T14:41:32.109Z,51.22
2017-09-19T14:42:40.767Z,51.32
2017-09-19T14:43:49.738Z,51.51
2017-09-19T14:44:58.728Z,51.22
2017-09-19T14:46:07.686Z,51.41
2017-09-19T14:47:16.660Z,51.41
2017-09-19T14:48:25.633Z,51.32
2017-09-19T14:49:34.616Z,51.22
2017-09-19T14:50:43.478Z,51.51
2017-09-19T14:51:52.778Z,51.7
2017-09-19T14:53:01.750Z,51.99
2017-09-19T14:54:10.413Z,51.8
2017-09-19T14:55:19.389Z,51.8
2017-09-19T14:56:28.081Z,51.99
2017-09-19T14:57:37.376Z,51.8
2017-09-19T14:58:47.011Z,51.7